Observations for BIRMINGHAM AIRPORT, United Kingdom (EGBB)

EGBB 130850Z 13011KT CAVOK 02/M01 Q1016 
EGBB 130820Z 13011KT CAVOK 01/M01 Q1016 
EGBB 130750Z 12010KT CAVOK 01/M01 Q1016 
EGBB 130720Z 13008KT CAVOK 01/M01 Q1016 
EGBB 130650Z 13009KT CAVOK 01/M00 Q1016 
EGBB 130620Z 12011KT CAVOK 01/M00 Q1015 
EGBB 130520Z 12010KT 8000 NSC 01/M00 Q1015  
EGBB 130450Z 12013KT CAVOK 01/M00 Q1015 
EGBB 130420Z 13012KT CAVOK 02/M01 Q1016 
EGBB 130350Z 12013KT CAVOK 02/M01 Q1016 
EGBB 130320Z 12014KT CAVOK 02/M01 Q1016 
EGBB 130250Z 12013KT CAVOK 02/M00 Q1016 
EGBB 130220Z 12013KT CAVOK 02/M01 Q1016 
EGBB 130150Z 13012KT CAVOK 02/M01 Q1016 
EGBB 130120Z 13010KT CAVOK 02/M01 Q1017 
EGBB 130050Z 12008KT CAVOK 01/M01 Q1017 
EGBB 130020Z 13008KT CAVOK 01/M01 Q1017 
EGBB 122350Z 12010KT CAVOK 02/M01 Q1017 
EGBB 122320Z 13011KT CAVOK 02/M01 Q1017 
EGBB 122250Z 14013KT CAVOK 02/M02 Q1017 
EGBB 122220Z 13012KT CAVOK 02/M02 Q1017 
EGBB 122150Z 13011KT CAVOK 02/M02 Q1018 
EGBB 122120Z 13011KT CAVOK 02/M02 Q1018 
EGBB 122050Z 14011KT CAVOK 02/M01 Q1018 
EGBB 122020Z 13013KT CAVOK 02/M01 Q1018 
EGBB 121950Z 12012KT CAVOK 03/M01 Q1018 
EGBB 121920Z 13011KT CAVOK 03/M01 Q1019 
EGBB 121850Z 14010KT CAVOK 03/M01 Q1019 
EGBB 121820Z 14013KT CAVOK 04/M00 Q1019 
EGBB 121750Z 13013KT 9999 FEW034 04/01 Q1019
EGBB 121720Z 13012KT 9999 BKN035 05/02 Q1019
EGBB 121650Z 13010KT 9999 VCSH BKN036 05/03 Q1019   
EGBB 121620Z 13012KT 9999 BKN033 06/04 Q1019
EGBB 121550Z 13012KT 9999 FEW015 BKN030 06/04 Q1019 
EGBB 121520Z 13010KT 9999 FEW017 BKN033 06/04 Q1020 
EGBB 121450Z 14011KT 9999 SCT015 BKN034 06/04 Q1020 
EGBB 121420Z 14013KT 9999 BKN014 BKN036 06/04 Q1020 
EGBB 121350Z 14010KT 9999 BKN014 BKN022 07/05 Q1020 
EGBB 121320Z 15012KT 9999 BKN013 BKN020 07/04 Q1020 
EGBB 121250Z 15011KT 9000 SCT013 BKN039 07/05 Q1020 
EGBB 121220Z 15012KT 9000 BKN016 07/05 Q1021
EGBB 121150Z 15011KT 7000 SCT010 BKN018 07/06 Q1021 
EGBB 121120Z 14010KT 4500 BR BKN008 06/06 Q1021 
EGBB 121050Z 15008KT 3800 BR OVC006 06/05 Q1022 
EGBB 121020Z 15008KT 3500 BR BKN006 05/05 Q1021 
EGBB 120950Z 14009KT 4000 BR SCT006 05/05 Q1021 
EGBB 120920Z 14009KT 4000 BR SCT007 SCT022 05/04 Q1021  
EGBB 120850Z 14008KT 4000 BR SCT006 BKN021 04/04 Q1021  
EGBB 120820Z 14006KT 100V160 5000 BR FEW007 04/04 Q1021